Time;durP1;ratioP1;P1;durP2;ratioP2;P2;SDS_P1;SDS_P2;PMS_P1;PMS_P2;Temp;Humidity;BMP_temperature;BMP_pressure;BME280_temperature;BME280_humidity;BME280_pressure;Samples;Min_cycle;Max_cycle;Signal;HPM_P1;HPM_P2
2022/10/22 00:00:33;;;;;;;;;0.00;0.00;;;;;19.26;53.64;99896.50;5037113;28;46179;-70
2022/10/22 00:02:59;;;;;;;;;0.00;0.00;;;;;19.23;53.98;99885.06;5036854;28;45282;-71
2022/10/22 00:05:24;;;;;;;;;0.00;0.00;;;;;19.27;53.78;99882.34;5036949;28;45355;-70
2022/10/22 00:07:50;;;;;;;;;0.00;0.00;;;;;19.39;53.55;99899.78;5037189;28;45456;-71
2022/10/22 00:10:17;;;;;;;;;0.00;0.00;;;;;19.32;53.75;99889.31;5036848;28;46174;-71
2022/10/22 00:12:43;;;;;;;;;0.00;0.00;;;;;19.28;53.83;99881.44;5036912;28;45373;-71
2022/10/22 00:15:10;;;;;;;;;0.00;0.00;;;;;19.31;54.04;99896.41;5034738;28;45462;-71
2022/10/22 00:17:35;;;;;;;;;0.00;0.00;;;;;19.35;54.19;99897.22;5037170;28;45294;-71
2022/10/22 00:20:01;;;;;;;;;0.00;0.00;;;;;19.28;54.31;99892.03;5036695;28;45316;-71
2022/10/22 00:22:27;;;;;;;;;0.00;0.00;;;;;19.26;53.85;99891.19;5035425;28;45388;-71
2022/10/22 00:24:52;;;;;;;;;0.00;0.00;;;;;19.26;53.89;99880.59;5036888;28;45370;-71
2022/10/22 00:27:18;;;;;;;;;0.00;0.00;;;;;19.27;54.09;99881.47;5036766;28;45166;-71
2022/10/22 00:29:43;;;;;;;;;0.00;0.00;;;;;19.17;54.06;99880.75;5036550;28;46484;-71
2022/10/22 00:32:09;;;;;;;;;0.00;0.00;;;;;19.22;53.99;99894.78;5036904;28;45221;-71
2022/10/22 00:34:34;;;;;;;;;0.00;0.00;;;;;19.10;54.16;99868.50;5036784;28;45397;-71
2022/10/22 00:37:00;;;;;;;;;0.00;0.00;;;;;19.18;53.87;99871.00;5037347;28;46071;-71
2022/10/22 00:39:26;;;;;;;;;0.00;0.00;;;;;19.26;54.02;99891.19;5051977;28;45834;-71
2022/10/22 00:41:55;;;;;;;;;0.00;0.00;;;;;19.21;54.23;99900.97;5036442;28;45406;-71
2022/10/22 00:44:57;;;;;;;;;0.00;0.00;;;;;19.21;54.53;99900.97;5036223;28;45358;-71
2022/10/22 00:47:24;;;;;;;;;1.00;0.00;;;;;19.20;54.23;99893.94;5035762;28;45415;-71
2022/10/22 00:49:52;;;;;;;;;0.00;0.00;;;;;19.11;54.23;99880.84;5033817;28;45520;-71
2022/10/22 00:52:18;;;;;;;;;0.00;0.00;;;;;19.13;54.41;99876.38;5034873;28;45503;-71
2022/10/22 00:54:44;;;;;;;;;0.00;0.00;;;;;19.08;54.43;99886.19;5036287;28;45854;-71
2022/10/22 00:57:10;;;;;;;;;0.00;0.00;;;;;19.10;54.57;99889.69;5036677;28;45212;-71
2022/10/22 00:59:36;;;;;;;;;0.00;0.00;;;;;19.04;54.62;99898.59;5036558;28;47154;-71
2022/10/22 01:02:02;;;;;;;;;0.00;0.00;;;;;19.08;54.23;99910.03;5035773;28;45460;-71
2022/10/22 01:04:28;;;;;;;;;0.00;0.00;;;;;19.10;54.52;99909.97;5036049;28;45382;-71
2022/10/22 01:06:54;;;;;;;;;0.00;0.00;;;;;19.02;54.25;99897.75;5036348;28;45370;-71
2022/10/22 01:09:41;;;;;;;;;0.00;0.00;;;;;19.07;54.46;99901.19;5051161;28;47045;-71
2022/10/22 01:12:40;;;;;;;;;0.00;0.00;;;;;19.03;54.62;99907.41;5035971;28;45477;-71
2022/10/22 01:15:32;;;;;;;;;0.00;0.00;;;;;19.03;54.61;99895.97;5036023;28;45441;-71
2022/10/22 01:18:36;;;;;;;;;0.00;0.00;;;;;19.04;54.20;99884.50;5034813;28;45304;-71
2022/10/22 01:21:26;;;;;;;;;0.00;0.00;;;;;19.09;54.16;99887.94;4945646;28;45405;-70
2022/10/22 01:24:10;;;;;;;;;0.00;0.00;;;;;19.13;54.03;99886.97;5031086;28;45418;-71
2022/10/22 01:26:56;;;;;;;;;0.00;0.00;;;;;19.15;53.79;99884.31;5033835;28;45528;-71
2022/10/22 01:29:57;;;;;;;;;0.00;0.00;;;;;19.16;54.00;99888.69;5034200;28;45407;-70
2022/10/22 01:32:25;;;;;;;;;0.00;0.00;;;;;19.14;53.92;99890.50;5030564;28;45553;-71
2022/10/22 01:35:04;;;;;;;;;0.00;0.00;;;;;19.15;53.77;99887.81;5031795;28;45522;-71
2022/10/22 01:37:35;;;;;;;;;0.00;0.00;;;;;19.13;53.90;99888.75;5032986;28;45339;-71
2022/10/22 01:40:02;;;;;;;;;0.00;0.00;;;;;18.97;54.17;99867.81;5035939;28;45358;-71
2022/10/22 01:42:28;;;;;;;;;0.00;0.00;;;;;18.94;54.08;99865.22;5035508;28;45534;-71
2022/10/22 01:44:53;;;;;;;;;0.00;0.00;;;;;19.08;54.14;99892.34;5035489;28;45416;-71
2022/10/22 01:47:34;;;;;;;;;0.00;0.00;;;;;19.04;54.40;99892.44;5035986;28;46545;-71
2022/10/22 01:50:38;;;;;;;;;0.00;0.00;;;;;19.04;54.40;99889.78;5037315;28;45185;-71
2022/10/22 01:53:39;;;;;;;;;0.00;0.00;;;;;19.01;54.33;99911.88;5029052;28;46277;-71
2022/10/22 01:56:39;;;;;;;;;0.00;0.00;;;;;18.96;54.50;99905.78;5036683;28;45405;-71
2022/10/22 01:59:20;;;;;;;;;0.00;0.00;;;;;18.95;54.72;99921.69;5021022;28;45528;-71
2022/10/22 02:02:19;;;;;;;;;0.00;0.00;;;;;18.91;54.86;99920.84;5037142;28;45497;-71
2022/10/22 02:04:55;;;;;;;;;0.00;0.00;;;;;18.90;55.07;99918.22;5036615;28;46396;-71
2022/10/22 02:07:27;;;;;;;;;0.00;0.00;;;;;18.85;55.28;99915.63;5036907;28;45509;-73
2022/10/22 02:09:56;;;;;;;;;0.00;0.00;;;;;18.67;55.40;99882.34;5035689;28;45227;-70
2022/10/22 02:12:23;;;;;;;;;0.00;0.00;;;;;18.88;55.25;99905.03;5036996;28;45529;-71
2022/10/22 02:14:51;;;;;;;;;0.00;0.00;;;;;18.85;55.53;99894.47;5036717;28;46228;-71
2022/10/22 02:17:20;;;;;;;;;0.00;0.00;;;;;18.84;55.81;99895.34;5036840;28;45570;-71
2022/10/22 02:20:08;;;;;;;;;0.00;0.00;;;;;18.70;55.36;99874.34;5036878;28;45354;-71
2022/10/22 02:22:35;;;;;;;;;0.00;0.00;;;;;18.82;55.76;99878.63;5036915;28;45508;-71
2022/10/22 02:25:03;;;;;;;;;0.00;0.00;;;;;18.85;55.44;99875.94;5036358;28;45347;-71
2022/10/22 02:27:56;;;;;;;;;0.67;0.00;;;;;18.69;55.88;99849.66;5036378;28;45407;-71
2022/10/22 02:30:22;;;;;;;;;0.00;0.00;;;;;18.79;55.60;99858.38;5036320;28;45310;-71
2022/10/22 02:33:13;;;;;;;;;0.00;0.00;;;;;18.88;55.47;99867.97;5036686;28;45516;-71
2022/10/22 02:35:40;;;;;;;;;0.00;0.00;;;;;18.81;55.44;99847.78;5052075;28;46433;-71
2022/10/22 02:38:07;;;;;;;;;0.00;0.00;;;;;18.81;55.59;99869.81;5052024;28;45240;-71
2022/10/22 02:40:32;;;;;;;;;0.00;0.00;;;;;18.84;55.65;99876.81;5038975;28;45347;-72
2022/10/22 02:42:58;;;;;;;;;0.00;0.00;;;;;18.77;55.40;99865.44;5040146;28;45265;-70
2022/10/22 02:45:24;;;;;;;;;0.00;0.00;;;;;18.79;55.70;99868.97;5039789;28;46263;-70
2022/10/22 02:47:49;;;;;;;;;0.00;0.00;;;;;18.75;55.51;99864.56;5055494;28;45345;-71
2022/10/22 02:50:15;;;;;;;;;0.00;0.00;;;;;18.65;55.47;99839.16;5055436;28;45596;-70
2022/10/22 02:52:41;;;;;;;;;0.00;0.00;;;;;18.81;55.46;99869.81;5040439;28;45493;-70
2022/10/22 02:55:07;;;;;;;;;0.00;0.00;;;;;18.74;55.47;99843.44;5038262;28;47932;-70
2022/10/22 02:57:33;;;;;;;;;0.00;0.00;;;;;18.75;55.44;99854.00;5054782;28;45380;-70
2022/10/22 02:59:58;;;;;;;;;0.00;0.00;;;;;18.71;55.19;99854.06;5039857;28;45283;-71
2022/10/22 03:02:24;;;;;;;;;0.00;0.00;;;;;18.70;55.61;99855.81;5039674;28;45505;-70
2022/10/22 03:04:49;;;;;;;;;0.00;0.00;;;;;18.73;55.51;99861.09;5039385;28;45519;-70
2022/10/22 03:07:15;;;;;;;;;0.00;0.00;;;;;18.73;55.55;99862.88;5055423;28;45403;-70
2022/10/22 03:09:41;;;;;;;;;0.00;0.00;;;;;18.66;55.38;99857.66;5055389;28;45247;-70
2022/10/22 03:12:07;;;;;;;;;0.00;0.00;;;;;18.76;55.57;99874.28;5039856;28;45493;-70
2022/10/22 03:14:33;;;;;;;;;0.00;0.00;;;;;18.70;55.60;99866.41;5039341;28;45520;-70
2022/10/22 03:16:59;;;;;;;;;0.00;0.00;;;;;18.58;55.90;99850.72;5039416;28;45969;-70
2022/10/22 03:19:24;;;;;;;;;0.67;0.00;;;;;18.56;55.60;99852.50;5039356;28;45367;-71
2022/10/22 03:21:54;;;;;;;;;0.00;0.00;;;;;18.68;55.72;99869.09;5055214;28;45684;-70
2022/10/22 03:24:28;;;;;;;;;0.00;0.00;;;;;18.55;56.02;99854.28;5039181;28;46446;-70
2022/10/22 03:26:54;;;;;;;;;0.00;0.00;;;;;18.62;55.93;99855.06;5054648;28;45338;-70
2022/10/22 03:29:24;;;;;;;;;0.00;0.00;;;;;18.45;56.02;99832.38;5054840;28;45496;-71
2022/10/22 03:31:50;;;;;;;;;0.00;0.00;;;;;18.56;55.42;99856.03;5039536;28;45489;-70
2022/10/22 03:34:16;;;;;;;;;0.00;0.00;;;;;18.50;56.20;99850.81;5039071;28;45528;-70
2022/10/22 03:36:41;;;;;;;;;0.00;0.00;;;;;18.48;56.20;99852.59;5039116;28;45395;-70
2022/10/22 03:39:08;;;;;;;;;0.00;0.00;;;;;18.60;56.57;99872.72;5039108;28;45329;-70
2022/10/22 03:41:35;;;;;;;;;0.00;0.00;;;;;18.56;56.48;99860.44;5039265;28;45579;-74
2022/10/22 03:44:03;;;;;;;;;0.00;0.00;;;;;18.59;56.65;99874.50;5038939;28;46448;-70
2022/10/22 03:46:28;;;;;;;;;0.00;0.00;;;;;18.52;56.91;99875.47;5038820;28;45556;-71
2022/10/22 03:48:54;;;;;;;;;0.00;0.00;;;;;18.51;56.90;99867.56;5054562;28;45474;-70
2022/10/22 03:51:19;;;;;;;;;0.00;0.00;;;;;18.53;57.11;99879.00;5038489;28;45468;-70
2022/10/22 03:53:45;;;;;;;;;0.00;0.00;;;;;18.58;56.98;99890.38;5054604;28;47788;-71
2022/10/22 03:56:12;;;;;;;;;0.00;0.00;;;;;18.59;56.95;99893.03;5038893;28;45423;-70
2022/10/22 03:58:39;;;;;;;;;0.00;0.00;;;;;18.55;57.41;99911.59;5039004;28;45462;-70
2022/10/22 04:01:10;;;;;;;;;0.00;0.00;;;;;18.49;57.32;99908.13;5038848;28;45392;-70
2022/10/22 04:03:36;;;;;;;;;0.00;0.00;;;;;18.49;57.43;99917.84;5038594;28;46384;-70
2022/10/22 04:06:07;;;;;;;;;0.00;0.00;;;;;18.48;57.61;99921.38;5070782;28;45411;-70
2022/10/22 04:08:34;;;;;;;;;0.00;0.00;;;;;18.47;57.50;99915.22;5038703;28;45524;-71
2022/10/22 04:10:59;;;;;;;;;0.00;0.00;;;;;18.37;57.41;99907.41;5038679;28;45215;-70
2022/10/22 04:13:25;;;;;;;;;0.00;0.00;;;;;18.35;57.88;99904.78;5038345;28;45481;-71
2022/10/22 04:15:50;;;;;;;;;0.00;0.00;;;;;18.29;57.90;99895.16;5038215;28;45449;-70
2022/10/22 04:18:22;;;;;;;;;0.00;0.00;;;;;18.45;57.74;99903.78;5054353;28;45450;-70
2022/10/22 04:20:48;;;;;;;;;0.00;0.00;;;;;18.44;57.87;99890.56;5039082;28;45307;-70
2022/10/22 04:23:13;;;;;;;;;0.00;0.00;;;;;18.46;57.89;99902.91;5053831;28;46696;-70
2022/10/22 04:25:39;;;;;;;;;0.00;0.00;;;;;18.48;57.65;99892.28;5038143;28;45228;-70
2022/10/22 04:28:09;;;;;;;;;0.00;0.00;;;;;18.49;57.86;99901.97;5038412;28;45413;-70
2022/10/22 04:30:35;;;;;;;;;0.00;0.00;;;;;18.55;57.90;99906.31;5038537;28;45475;-70
2022/10/22 04:33:01;;;;;;;;;0.00;0.00;;;;;18.48;57.93;99903.75;5037884;28;46125;-70
2022/10/22 04:35:27;;;;;;;;;0.00;0.00;;;;;18.47;57.70;99901.97;5053534;28;45405;-70
2022/10/22 04:37:53;;;;;;;;;0.00;0.00;;;;;18.49;57.58;99901.97;5038364;28;45469;-71
2022/10/22 04:40:19;;;;;;;;;0.00;0.00;;;;;18.48;57.61;99913.44;5054102;28;45635;-71
2022/10/22 04:42:44;;;;;;;;;0.67;0.00;;;;;18.51;57.58;99920.47;5037608;28;46144;-71
2022/10/22 04:45:10;;;;;;;;;0.00;0.00;;;;;18.51;57.91;99928.41;5038041;28;45458;-71
2022/10/22 04:47:35;;;;;;;;;0.00;0.00;;;;;18.48;57.79;99924.91;5038234;28;45248;-70
2022/10/22 04:50:01;;;;;;;;;0.00;0.00;;;;;18.45;57.84;99913.50;5053778;28;45753;-71
2022/10/22 04:52:26;;;;;;;;;0.00;0.00;;;;;17.99;57.69;99830.31;5037792;28;45327;-70
2022/10/22 04:54:52;;;;;;;;;0.00;0.00;;;;;18.53;57.52;99916.91;5053246;28;45523;-71
2022/10/22 04:57:17;;;;;;;;;0.00;0.00;;;;;18.56;57.45;99908.03;5038209;28;45431;-71
2022/10/22 04:59:43;;;;;;;;;0.33;0.00;;;;;18.47;57.61;99883.47;5053639;28;45630;-71
2022/10/22 05:02:08;;;;;;;;;0.00;0.00;;;;;18.42;57.59;99869.44;5037359;28;45395;-71
2022/10/22 05:04:34;;;;;;;;;0.00;0.00;;;;;18.51;57.45;99862.28;5036547;28;45500;-71
2022/10/22 05:06:59;;;;;;;;;0.00;0.00;;;;;18.62;56.84;99855.06;5037560;28;45335;-71
2022/10/22 05:09:25;;;;;;;;;0.00;0.00;;;;;18.71;56.76;99839.06;5053419;28;45485;-71
2022/10/22 05:11:52;;;;;;;;;0.00;0.00;;;;;18.81;56.14;99830.13;5037755;28;46395;-71
2022/10/22 05:14:23;;;;;;;;;0.00;0.00;;;;;18.96;55.90;99846.66;5052853;28;45386;-71
2022/10/22 05:16:50;;;;;;;;;0.00;0.00;;;;;18.99;55.73;99843.97;5037913;28;45525;-71
2022/10/22 05:19:24;;;;;;;;;0.00;0.00;;;;;18.96;55.28;99829.03;5037721;28;45519;-71
2022/10/22 05:21:54;;;;;;;;;0.00;0.00;;;;;18.95;55.38;99826.41;5037707;28;46065;-70
2022/10/22 05:24:20;;;;;;;;;0.00;0.00;;;;;18.98;55.37;99818.38;5037619;28;45289;-71
2022/10/22 05:26:49;;;;;;;;;0.00;0.00;;;;;19.03;55.43;99845.66;5037662;28;45264;-71
2022/10/22 05:29:14;;;;;;;;;0.00;0.00;;;;;19.01;55.39;99860.72;5037750;28;45318;-71
2022/10/22 05:31:40;;;;;;;;;0.00;0.00;;;;;18.93;55.19;99849.38;5052594;28;47045;-71
2022/10/22 05:34:05;;;;;;;;;0.00;0.00;;;;;18.99;55.56;99866.00;5036744;28;45525;-71
2022/10/22 05:36:31;;;;;;;;;0.00;0.00;;;;;18.86;55.47;99860.03;5037342;28;45367;-71
2022/10/22 05:38:57;;;;;;;;;0.00;0.00;;;;;18.94;55.39;99896.09;5037433;28;45201;-71
2022/10/22 05:41:24;;;;;;;;;0.00;0.00;;;;;18.99;55.06;99889.84;5037463;28;46443;-71
2022/10/22 05:43:50;;;;;;;;;0.00;0.00;;;;;18.96;55.01;99883.72;5037291;28;45546;-71
2022/10/22 05:46:19;;;;;;;;;0.00;0.00;;;;;18.94;54.97;99893.44;5037307;28;45407;-71
2022/10/22 05:48:51;;;;;;;;;0.00;0.00;;;;;18.84;55.34;99890.06;5052892;28;45546;-71
2022/10/22 05:51:16;;;;;;;;;0.00;0.00;;;;;18.94;54.96;99898.75;5051701;28;47963;-71
2022/10/22 05:53:42;;;;;;;;;0.00;0.00;;;;;18.88;55.26;99894.44;5036706;28;45466;-71
2022/10/22 05:56:15;;;;;;;;;0.00;0.00;;;;;18.96;55.02;99910.19;5037054;28;45392;-71
2022/10/22 05:58:42;;;;;;;;;0.00;0.00;;;;;18.83;55.01;99888.31;5037438;28;45339;-71
2022/10/22 06:01:11;;;;;;;;;0.00;0.00;;;;;18.96;55.24;99921.66;5036879;28;46539;-71
2022/10/22 06:03:37;;;;;;;;;0.00;0.00;;;;;18.85;55.14;99907.69;5035323;28;45379;-72
2022/10/22 06:06:14;;;;;;;;;0.00;0.00;;;;;18.82;54.93;99897.13;5036983;28;45315;-71
2022/10/22 06:08:40;;;;;;;;;0.00;0.00;;;;;18.96;54.69;99915.47;5037153;28;45516;-71
2022/10/22 06:11:06;;;;;;;;;0.00;0.00;;;;;18.96;54.47;99912.81;5036590;28;46101;-70
2022/10/22 06:13:31;;;;;;;;;0.00;0.00;;;;;19.02;54.63;99923.31;5036766;28;45505;-71
2022/10/22 06:15:57;;;;;;;;;0.00;0.00;;;;;19.02;54.58;99923.31;5039976;28;45465;-71
2022/10/22 06:18:22;;;;;;;;;0.00;0.00;;;;;19.05;54.16;99918.00;5055005;28;45367;-71
2022/10/22 06:20:48;;;;;;;;;0.00;0.00;;;;;19.12;54.08;99924.97;5038730;28;46503;-74
2022/10/22 06:23:14;;;;;;;;;0.00;0.00;;;;;19.10;53.93;99924.09;5038637;28;45749;-71
2022/10/22 06:25:40;;;;;;;;;0.00;0.00;;;;;19.20;53.64;99936.31;5039612;28;45468;-75
2022/10/22 06:28:05;;;;;;;;;0.00;0.00;;;;;19.21;53.48;99931.88;5038127;28;45737;-71
2022/10/22 06:30:31;;;;;;;;;0.00;0.00;;;;;19.26;53.07;99938.84;5038900;28;45494;-71
2022/10/22 06:32:56;;;;;;;;;0.00;0.00;;;;;19.07;53.29;99922.34;5038355;28;45482;-71
2022/10/22 06:35:22;;;;;;;;;0.00;0.00;;;;;18.75;53.71;99871.66;5053318;28;45419;-73
2022/10/22 06:37:47;;;;;;;;;0.00;0.00;;;;;19.17;53.32;99944.28;5038373;28;46022;-71
2022/10/22 06:40:13;;;;;;;;;1.00;1.00;;;;;19.21;53.68;99959.22;5038620;28;46213;-71
2022/10/22 06:42:38;;;;;;;;;0.00;0.00;;;;;19.05;53.61;99939.16;5038949;28;45389;-73
2022/10/22 06:45:05;;;;;;;;;0.00;0.00;;;;;19.16;53.58;99965.47;5046659;28;45478;-72
2022/10/22 06:47:32;;;;;;;;;0.00;0.00;;;;;19.17;53.32;99967.25;5045969;28;45435;-73
2022/10/22 06:49:58;;;;;;;;;0.00;0.00;;;;;19.26;53.41;99985.66;5038946;28;46373;-71
2022/10/22 06:52:23;;;;;;;;;0.00;0.00;;;;;19.23;53.10;99973.31;5038390;28;45525;-71
2022/10/22 06:54:49;;;;;;;;;0.00;0.00;;;;;19.37;52.88;99989.00;5039664;28;45462;-71
2022/10/22 06:57:14;;;;;;;;;2.00;2.00;;;;;19.35;52.95;99984.63;5038578;28;45533;-76
2022/10/22 06:59:40;;;;;;;;;0.00;0.00;;;;;19.27;52.99;99977.66;5036841;28;46283;-80
2022/10/22 07:02:06;;;;;;;;;0.00;0.00;;;;;19.19;52.95;99961.03;5038890;28;45442;-73
2022/10/22 07:04:32;;;;;;;;;0.00;0.00;;;;;19.37;52.33;99975.75;5038878;28;45355;-79
2022/10/22 07:06:58;;;;;;;;;0.00;0.00;;;;;19.34;52.41;99959.94;5034281;28;45850;-72
2022/10/22 07:09:23;;;;;;;;;0.00;0.00;;;;;19.42;52.86;99981.00;5037123;28;47039;-72
2022/10/22 07:11:49;;;;;;;;;0.00;0.00;;;;;19.42;52.86;99975.72;5038535;28;45419;-72
2022/10/22 07:14:14;;;;;;;;;2.33;2.33;;;;;19.48;52.69;99992.38;5039008;28;45402;-74
2022/10/22 07:16:44;;;;;;;;;0.00;0.00;;;;;19.51;52.44;99995.88;5039348;28;45532;-71
2022/10/22 07:19:10;;;;;;;;;0.00;0.00;;;;;19.48;52.63;99987.06;5025331;28;46294;-71
2022/10/22 07:21:36;;;;;;;;;0.00;0.00;;;;;19.55;52.80;99986.97;5039032;28;45368;-73
2022/10/22 07:24:02;;;;;;;;;0.00;0.00;;;;;19.55;52.25;99976.38;5037995;28;45477;-72
2022/10/22 07:26:29;;;;;;;;;0.00;0.00;;;;;19.64;52.17;99982.41;5038546;28;45477;-73
2022/10/22 07:28:55;;;;;;;;;0.00;0.00;;;;;19.79;51.91;99993.69;5039315;28;46602;-72
2022/10/22 07:31:21;;;;;;;;;0.00;0.00;;;;;19.80;51.91;99979.53;5037867;28;45410;-72
2022/10/22 07:33:47;;;;;;;;;6.67;6.00;;;;;19.88;51.70;99977.63;5036774;28;45392;-75
2022/10/22 07:36:18;;;;;;;;;0.00;0.00;;;;;20.14;51.51;100006.34;5038858;28;45560;-72
2022/10/22 07:38:45;;;;;;;;;0.00;0.00;;;;;20.31;51.17;100005.13;5037339;28;46710;-72
2022/10/22 07:41:12;;;;;;;;;0.00;0.00;;;;;20.55;50.37;100011.75;5038465;28;45493;-72
2022/10/22 07:43:38;;;;;;;;;0.00;0.00;;;;;22.18;48.65;99992.13;5037158;28;45310;-73
2022/10/22 07:46:03;;;;;;;;;1.00;0.00;;;;;25.61;42.02;99996.75;5037459;28;45574;-72
2022/10/22 07:48:29;;;;;;;;;0.00;0.00;;;;;27.82;37.45;99990.41;5038266;28;46345;-71
2022/10/22 07:50:55;;;;;;;;;0.00;0.00;;;;;29.53;34.76;100012.59;5036834;28;45399;-76
2022/10/22 07:53:21;;;;;;;;;0.00;0.00;;;;;30.67;32.45;100005.00;5038071;28;45443;-72
2022/10/22 07:55:48;;;;;;;;;0.00;0.00;;;;;31.71;30.66;100009.16;5037632;28;45493;-72
2022/10/22 07:58:14;;;;;;;;;0.00;0.00;;;;;32.52;28.72;100004.56;5037391;28;45524;-73
2022/10/22 08:00:40;;;;;;;;;0.00;0.00;;;;;33.14;28.26;100005.63;5052639;28;45746;-71
2022/10/22 08:03:05;;;;;;;;;0.00;0.00;;;;;33.90;27.41;100009.91;5038117;28;45394;-72
2022/10/22 08:05:31;;;;;;;;;0.00;0.00;;;;;34.16;27.28;100005.25;5038186;28;45724;-72
2022/10/22 08:07:56;;;;;;;;;0.00;0.00;;;;;34.36;26.10;100008.22;5038599;28;46416;-72
2022/10/22 08:10:22;;;;;;;;;0.00;0.00;;;;;34.66;25.62;100000.44;5038125;28;45403;-72
2022/10/22 08:12:48;;;;;;;;;0.00;0.00;;;;;35.54;25.38;100008.78;5037223;28;46216;-72
2022/10/22 08:15:13;;;;;;;;;0.00;0.00;;;;;36.14;24.40;100001.88;5036720;28;45431;-76
2022/10/22 08:17:39;;;;;;;;;0.00;0.00;;;;;36.40;23.62;100018.66;5052215;28;46297;-75
2022/10/22 08:20:05;;;;;;;;;0.00;0.00;;;;;36.59;24.12;100001.63;5052454;28;45426;-74
2022/10/22 08:22:30;;;;;;;;;0.33;0.00;;;;;37.00;23.45;100009.84;5037752;28;45437;-72
2022/10/22 08:24:56;;;;;;;;;0.00;0.00;;;;;37.39;23.90;100019.03;5036323;28;45661;-71
2022/10/22 08:27:21;;;;;;;;;0.00;0.00;;;;;37.44;23.56;100007.69;5037209;28;46444;-73
2022/10/22 08:29:47;;;;;;;;;1.67;1.67;;;;;37.39;23.44;100016.31;5037485;28;45275;-73
2022/10/22 08:32:12;;;;;;;;;0.00;0.00;;;;;36.97;22.92;100005.53;5037342;28;45537;-73
2022/10/22 08:34:38;;;;;;;;;0.00;0.00;;;;;37.08;22.81;100001.84;5037161;28;45757;-74
2022/10/22 08:37:04;;;;;;;;;0.00;0.00;;;;;37.26;22.66;100017.56;5036602;28;45616;-73
2022/10/22 08:39:30;;;;;;;;;0.00;0.00;;;;;37.24;23.26;100016.84;5053560;28;46125;-72
2022/10/22 08:42:01;;;;;;;;;0.00;0.00;;;;;36.84;23.03;100015.78;5037378;28;45351;-73
2022/10/22 08:45:00;;;;;;;;;0.00;0.00;;;;;36.51;23.54;100025.91;5036152;28;45583;-74
2022/10/22 08:47:57;;;;;;;;;0.00;0.00;;;;;35.95;24.21;100008.03;5017641;28;45654;-79
2022/10/22 08:50:31;;;;;;;;;0.00;0.00;;;;;35.23;24.45;100014.00;5033771;28;46032;-79
2022/10/22 08:53:01;;;;;;;;;0.00;0.00;;;;;35.05;25.15;99998.19;5035035;28;45498;-77
2022/10/22 08:55:27;;;;;;;;;0.00;0.00;;;;;34.97;25.38;100011.53;5036604;28;45597;-81
2022/10/22 08:58:23;;;;;;;;;0.67;0.67;;;;;34.82;25.29;100019.06;5036318;28;45407;-80
2022/10/22 09:00:59;;;;;;;;;0.33;0.00;;;;;33.36;27.08;100021.16;5036018;28;45655;-79
2022/10/22 09:03:38;;;;;;;;;0.00;0.00;;;;;33.01;27.44;99995.69;5036147;28;45501;-79
2022/10/22 09:06:14;;;;;;;;;0.67;0.00;;;;;32.95;27.74;100023.19;5038068;28;45484;-74
2022/10/22 09:08:42;;;;;;;;;0.00;0.00;;;;;32.17;27.74;100012.41;5037573;28;45462;-75
2022/10/22 09:11:27;;;;;;;;;0.33;0.00;;;;;31.91;28.85;100009.63;5037670;28;45399;-75
2022/10/22 09:13:56;;;;;;;;;0.00;0.00;;;;;31.46;29.42;100011.72;5036113;28;45418;-75
2022/10/22 09:16:58;;;;;;;;;0.00;0.00;;;;;31.64;29.15;100012.34;5037300;28;45341;-74
2022/10/22 09:19:27;;;;;;;;;0.00;0.00;;;;;31.76;28.89;100008.81;5057782;28;47935;-73
2022/10/22 09:22:24;;;;;;;;;0.00;0.00;;;;;31.86;29.59;100012.63;5036380;28;45508;-74
2022/10/22 09:25:20;;;;;;;;;0.00;0.00;;;;;31.43;29.94;99996.56;5034818;28;45424;-74
2022/10/22 09:27:48;;;;;;;;;0.00;0.00;;;;;31.63;29.95;100007.91;5019389;28;45579;-75
2022/10/22 09:30:20;;;;;;;;;0.00;0.00;;;;;31.76;29.16;100000.72;5036528;28;45612;-73
2022/10/22 09:32:48;;;;;;;;;0.00;0.00;;;;;31.13;30.09;99992.19;5036688;28;45699;-75
2022/10/22 09:35:14;;;;;;;;;0.00;0.00;;;;;31.21;29.80;99983.59;5035046;28;45409;-74
2022/10/22 09:37:52;;;;;;;;;0.00;0.00;;;;;31.52;29.86;99987.03;5036301;28;45542;-74
2022/10/22 09:40:18;;;;;;;;;4.67;3.33;;;;;31.66;28.91;99968.06;5034839;28;45531;-74
2022/10/22 09:42:48;;;;;;;;;0.00;0.00;;;;;31.90;30.05;99981.75;5034667;28;45489;-74
2022/10/22 09:45:24;;;;;;;;;0.00;0.00;;;;;32.16;28.34;99989.94;5036475;28;45629;-74
2022/10/22 09:48:09;;;;;;;;;0.00;0.00;;;;;32.15;28.59;99984.63;5036854;28;45415;-74
2022/10/22 09:50:38;;;;;;;;;0.00;0.00;;;;;32.10;28.80;99980.41;5035985;28;45984;-74
2022/10/22 09:53:25;;;;;;;;;0.00;0.00;;;;;31.91;28.88;99971.78;5037007;28;45251;-74
2022/10/22 09:55:57;;;;;;;;;0.00;0.00;;;;;32.05;28.41;99982.59;5036047;28;45434;-73
2022/10/22 09:58:23;;;;;;;;;0.00;0.00;;;;;31.70;28.67;99968.72;5032649;28;45447;-74
2022/10/22 10:00:57;;;;;;;;;0.00;0.00;;;;;31.51;29.25;99980.78;5034402;28;45401;-74
2022/10/22 10:03:29;;;;;;;;;0.00;0.00;;;;;31.18;29.22;99966.72;5033496;28;45358;-73
2022/10/22 10:05:57;;;;;;;;;0.00;0.00;;;;;31.05;29.16;99956.75;5035840;28;45477;-74
2022/10/22 10:08:23;;;;;;;;;0.00;0.00;;;;;30.85;29.52;99967.94;5033792;28;45514;-73
2022/10/22 10:10:55;;;;;;;;;0.00;0.00;;;;;30.92;29.80;99967.47;5035763;28;45532;-73
2022/10/22 10:13:42;;;;;;;;;0.00;0.00;;;;;30.87;30.06;99968.69;5035059;28;45325;-73
2022/10/22 10:16:07;;;;;;;;;0.00;0.00;;;;;30.66;30.32;99965.53;5033976;28;45626;-73
2022/10/22 10:18:50;;;;;;;;;0.00;0.00;;;;;30.23;30.83;99950.16;5036346;28;45457;-74
2022/10/22 10:22:13;;;;;;;;;0.00;0.00;;;;;30.52;30.97;99967.28;5050271;28;47124;-73
2022/10/22 10:24:53;;;;;;;;;0.00;0.00;;;;;30.65;31.28;99980.84;4952356;28;45702;-75
2022/10/22 10:27:29;;;;;;;;;0.00;0.00;;;;;30.47;30.82;99958.59;4955028;28;45527;-74
2022/10/22 10:30:16;;;;;;;;;0.00;0.00;;;;;30.30;31.17;99956.97;5010208;28;45623;-74
2022/10/22 10:33:06;;;;;;;;;0.00;0.00;;;;;30.35;31.32;99962.06;5030567;28;46575;-74
2022/10/22 10:35:54;;;;;;;;;0.00;0.00;;;;;30.22;31.20;99961.91;5034080;28;45560;-77
2022/10/22 10:38:38;;;;;;;;;0.00;0.00;;;;;30.29;30.78;99947.09;5034468;28;45435;-73
2022/10/22 10:41:16;;;;;;;;;0.00;0.00;;;;;30.13;31.69;99965.16;5036714;28;45232;-73
2022/10/22 10:44:00;;;;;;;;;0.67;0.67;;;;;30.07;30.80;99962.84;5034627;28;46830;-73
2022/10/22 10:46:37;;;;;;;;;0.00;0.00;;;;;29.99;31.50;99963.31;5036274;28;45505;-75
2022/10/22 10:49:15;;;;;;;;;0.00;0.00;;;;;29.87;31.24;99958.66;5035741;28;45407;-74
2022/10/22 10:51:52;;;;;;;;;0.00;0.00;;;;;29.76;31.47;99953.91;5035860;28;45431;-76
2022/10/22 10:54:42;;;;;;;;;0.00;0.00;;;;;29.57;31.49;99946.03;5034680;28;45444;-73
2022/10/22 10:57:26;;;;;;;;;0.00;0.00;;;;;29.37;31.61;99947.19;5035998;28;45494;-74
2022/10/22 11:00:04;;;;;;;;;0.00;0.00;;;;;29.30;31.93;99937.72;5036022;28;45551;-73
2022/10/22 11:02:55;;;;;;;;;0.00;0.00;;;;;29.38;32.50;99929.22;5039059;28;45453;-74
2022/10/22 11:05:33;;;;;;;;;0.00;0.00;;;;;29.38;32.36;99939.97;5036868;28;47712;-74
2022/10/22 11:08:40;;;;;;;;;0.00;0.00;;;;;29.20;31.96;99933.81;5038204;28;45232;-75
2022/10/22 11:11:25;;;;;;;;;0.00;0.00;;;;;29.02;31.98;99933.03;5029262;28;45544;-74
2022/10/22 11:13:56;;;;;;;;;0.00;0.00;;;;;28.89;32.40;99924.78;5039604;28;45244;-74
2022/10/22 11:16:39;;;;;;;;;0.00;0.00;;;;;28.84;32.55;99927.72;5039100;28;45682;-74
2022/10/22 11:19:29;;;;;;;;;1.00;1.00;;;;;28.79;32.50;99934.28;5037223;28;45657;-74
2022/10/22 11:22:04;;;;;;;;;0.00;0.00;;;;;28.73;32.10;99920.25;5039224;28;45238;-74
2022/10/22 11:24:35;;;;;;;;;0.00;0.00;;;;;28.55;32.49;99918.56;5039285;28;45402;-75
2022/10/22 11:27:14;;;;;;;;;0.00;0.00;;;;;28.51;32.94;99888.34;5037820;28;46465;-74
2022/10/22 11:29:46;;;;;;;;;1.00;0.00;;;;;28.53;32.42;99890.91;5039230;28;45523;-75
2022/10/22 11:32:18;;;;;;;;;0.00;0.00;;;;;28.55;32.48;99887.22;5037593;28;45296;-74
2022/10/22 11:34:47;;;;;;;;;0.00;0.00;;;;;28.53;32.80;99890.91;5038661;28;45301;-74
2022/10/22 11:37:15;;;;;;;;;0.00;0.00;;;;;28.50;32.90;99893.75;5038699;28;45407;-74
2022/10/22 11:39:58;;;;;;;;;0.00;0.00;;;;;28.36;32.90;99876.56;5037918;28;45305;-74
2022/10/22 11:42:33;;;;;;;;;0.00;0.00;;;;;28.23;33.26;99893.41;5037710;28;45321;-74
2022/10/22 11:45:03;;;;;;;;;0.00;0.00;;;;;27.98;33.23;99875.94;5039069;28;45534;-75
2022/10/22 11:47:34;;;;;;;;;0.00;0.00;;;;;27.78;33.19;99876.97;5037215;28;45622;-74
2022/10/22 11:50:18;;;;;;;;;0.00;0.00;;;;;27.72;33.62;99878.13;5037464;28;45273;-74